createdAt,value
2023-03-15T00:00:31.961Z,72.60
2023-03-15T00:03:15.308Z,72.75
2023-03-15T00:05:58.151Z,72.42
2023-03-15T00:08:41.125Z,72.24
2023-03-15T00:11:23.923Z,72.20
2023-03-15T00:14:06.697Z,72.13
2023-03-15T00:16:51.185Z,72.21
2023-03-15T00:19:33.804Z,72.31
2023-03-15T00:22:16.589Z,72.08
2023-03-15T00:24:59.396Z,72.01
2023-03-15T00:27:42.311Z,71.75
2023-03-15T00:30:25.127Z,71.68
2023-03-15T00:33:09.811Z,71.56
2023-03-15T00:35:53.749Z,71.86
2023-03-15T00:38:37.529Z,71.67
2023-03-15T00:41:22.494Z,71.85
2023-03-15T00:44:05.424Z,71.73
2023-03-15T00:46:48.281Z,71.66
2023-03-15T00:49:33.840Z,71.69
2023-03-15T00:52:17.918Z,71.58
2023-03-15T00:55:01.386Z,71.75
2023-03-15T00:57:45.452Z,72.02
2023-03-15T01:00:28.661Z,71.97
2023-03-15T01:03:11.673Z,72.11
2023-03-15T01:05:55.872Z,71.97
2023-03-15T01:08:38.694Z,71.95
2023-03-15T01:11:24.854Z,72.00
2023-03-15T01:14:08.854Z,72.16
2023-03-15T01:16:52.903Z,72.33
2023-03-15T01:19:35.673Z,72.60
2023-03-15T01:22:20.001Z,72.56
2023-03-15T01:25:02.830Z,72.61
2023-03-15T01:27:45.662Z,72.66
2023-03-15T01:30:28.439Z,72.72
2023-03-15T01:33:11.282Z,72.73
2023-03-15T01:36:00.934Z,73.13
2023-03-15T01:38:46.055Z,73.18
2023-03-15T01:41:29.873Z,73.36
2023-03-15T01:44:15.719Z,73.17
2023-03-15T01:47:01.185Z,73.22
2023-03-15T01:49:46.008Z,73.47
2023-03-15T01:52:34.123Z,73.62
2023-03-15T01:55:21.801Z,73.83
2023-03-15T01:58:28.386Z,74.14
2023-03-15T02:01:14.514Z,74.13
2023-03-15T02:04:05.043Z,74.20
2023-03-15T02:06:59.057Z,74.23
2023-03-15T02:09:51.996Z,74.38
2023-03-15T02:12:41.652Z,74.47
2023-03-15T02:15:24.891Z,74.72
2023-03-15T02:18:07.717Z,74.44
2023-03-15T02:21:00.279Z,74.79
2023-03-15T02:23:45.476Z,74.47
2023-03-15T02:26:34.137Z,74.48
2023-03-15T02:29:18.576Z,73.66
2023-03-15T02:32:01.526Z,74.01
2023-03-15T02:34:44.310Z,73.84
2023-03-15T02:37:27.192Z,73.66
2023-03-15T02:40:18.907Z,73.85
2023-03-15T02:43:05.379Z,73.82
2023-03-15T02:45:50.647Z,74.08
2023-03-15T02:48:36.484Z,73.56
2023-03-15T02:51:22.111Z,73.87
2023-03-15T02:54:06.802Z,73.72
2023-03-15T02:56:49.626Z,73.93
2023-03-15T02:59:32.498Z,73.94
2023-03-15T03:02:16.724Z,73.84
2023-03-15T03:04:59.581Z,73.86
2023-03-15T03:07:42.980Z,73.65
2023-03-15T03:10:26.777Z,73.37
2023-03-15T03:13:13.001Z,73.18
2023-03-15T03:15:58.850Z,73.56
2023-03-15T03:18:46.031Z,73.22
2023-03-15T03:21:29.303Z,72.96
2023-03-15T03:24:16.235Z,73.34
2023-03-15T03:26:59.134Z,72.73
2023-03-15T03:29:46.133Z,72.62
2023-03-15T03:32:29.587Z,73.13
2023-03-15T03:35:16.053Z,72.78
2023-03-15T03:37:59.477Z,73.02
2023-03-15T03:40:48.815Z,72.51
2023-03-15T03:43:32.530Z,72.88
2023-03-15T03:46:15.479Z,72.47
2023-03-15T03:49:03.607Z,72.74
2023-03-15T03:51:47.755Z,72.46
2023-03-15T03:54:32.135Z,72.03
2023-03-15T03:57:14.897Z,71.38
2023-03-15T03:59:58.679Z,71.59
2023-03-15T04:02:43.077Z,71.73
2023-03-15T04:05:27.561Z,71.50
2023-03-15T04:08:11.901Z,70.92
2023-03-15T04:10:57.541Z,70.81
2023-03-15T04:13:43.359Z,70.56
2023-03-15T04:16:26.493Z,70.02
2023-03-15T04:19:19.309Z,69.46
2023-03-15T04:22:06.863Z,69.70
2023-03-15T04:25:17.519Z,68.44
2023-03-15T04:28:11.658Z,68.23
2023-03-15T04:31:02.601Z,69.27
2023-03-15T04:34:10.627Z,69.10
2023-03-15T04:37:05.951Z,68.82
2023-03-15T04:40:12.807Z,69.74
2023-03-15T04:43:06.626Z,70.09
2023-03-15T04:45:55.815Z,69.82
2023-03-15T04:48:59.265Z,70.33
2023-03-15T04:52:00.466Z,70.57
2023-03-15T04:54:43.260Z,71.23
2023-03-15T04:57:26.045Z,71.36
2023-03-15T05:00:22.063Z,71.81
2023-03-15T05:03:20.017Z,71.73
2023-03-15T05:06:13.332Z,71.96
2023-03-15T05:09:19.188Z,72.23
2023-03-15T05:12:21.990Z,72.08
2023-03-15T05:15:24.716Z,71.94
2023-03-15T05:18:17.562Z,72.51
2023-03-15T05:21:18.719Z,72.23
2023-03-15T05:24:12.532Z,72.20
2023-03-15T05:27:14.034Z,71.81
2023-03-15T05:30:05.714Z,72.17
2023-03-15T05:33:08.627Z,72.19
2023-03-15T05:36:15.368Z,72.27
2023-03-15T05:39:16.670Z,71.99
2023-03-15T05:42:22.056Z,71.67
2023-03-15T05:45:34.258Z,71.55
2023-03-15T05:48:32.438Z,71.24
2023-03-15T05:51:50.748Z,71.37
2023-03-15T05:54:33.572Z,71.21
2023-03-15T05:57:16.422Z,71.29
2023-03-15T06:00:18.642Z,71.45
2023-03-15T06:03:04.993Z,71.33
2023-03-15T06:05:58.580Z,71.40
2023-03-15T06:08:50.216Z,70.85
2023-03-15T06:11:33.273Z,70.41
2023-03-15T06:14:17.506Z,70.48
2023-03-15T06:17:08.683Z,70.28
2023-03-15T06:19:51.757Z,69.81
2023-03-15T06:22:36.059Z,70.33
2023-03-15T06:25:26.896Z,69.77
2023-03-15T06:28:09.759Z,69.48
2023-03-15T06:30:55.907Z,69.48
2023-03-15T06:33:44.926Z,69.72
2023-03-15T06:36:27.798Z,69.61
2023-03-15T06:39:12.317Z,69.79
2023-03-15T06:41:58.443Z,69.80
2023-03-15T06:44:43.831Z,70.13
2023-03-15T06:47:26.796Z,70.00
2023-03-15T06:50:11.678Z,69.94
2023-03-15T06:52:54.549Z,69.85
2023-03-15T06:55:38.809Z,69.65
2023-03-15T06:58:22.317Z,70.02
2023-03-15T07:01:05.494Z,70.25
2023-03-15T07:03:48.315Z,70.49
2023-03-15T07:06:31.142Z,70.59
2023-03-15T07:09:13.951Z,70.80
2023-03-15T07:11:58.089Z,69.96
2023-03-15T07:14:40.945Z,70.07
2023-03-15T07:17:23.757Z,69.72
2023-03-15T07:20:07.272Z,69.16
2023-03-15T07:22:50.116Z,68.48
2023-03-15T07:25:37.639Z,69.11
2023-03-15T07:28:27.284Z,69.37
2023-03-15T07:31:11.297Z,69.63
2023-03-15T07:33:54.090Z,69.56
2023-03-15T07:36:36.899Z,69.69
2023-03-15T07:39:19.723Z,69.04
2023-03-15T07:42:02.946Z,67.29
2023-03-15T07:44:56.186Z,68.46
2023-03-15T07:47:39.072Z,68.16
2023-03-15T07:50:22.521Z,68.65
2023-03-15T07:53:05.833Z,68.66
2023-03-15T07:55:49.271Z,68.36
2023-03-15T07:58:32.140Z,68.68
2023-03-15T08:01:16.357Z,68.48
2023-03-15T08:03:59.153Z,68.94
2023-03-15T08:06:41.993Z,69.16
2023-03-15T08:09:24.966Z,69.28
2023-03-15T08:12:08.481Z,69.85
2023-03-15T08:14:51.446Z,69.54
2023-03-15T08:17:35.621Z,69.67
2023-03-15T08:20:18.948Z,68.65
2023-03-15T08:23:02.424Z,68.85
2023-03-15T08:25:45.815Z,68.82
2023-03-15T08:28:28.652Z,66.52
2023-03-15T08:31:13.883Z,67.56
2023-03-15T08:33:58.315Z,67.53
2023-03-15T08:36:41.951Z,67.20
2023-03-15T08:39:24.948Z,66.81
2023-03-15T08:42:08.003Z,67.08
2023-03-15T08:44:50.811Z,66.42
2023-03-15T08:47:35.326Z,66.26
2023-03-15T08:50:19.347Z,65.39
2023-03-15T08:53:02.170Z,64.76
2023-03-15T08:55:45.183Z,64.36
2023-03-15T08:58:28.092Z,63.85
2023-03-15T09:01:12.311Z,64.06
2023-03-15T09:03:55.200Z,63.36
2023-03-15T09:06:39.364Z,62.26
2023-03-15T09:09:22.301Z,63.21
2023-03-15T09:12:05.489Z,61.24
2023-03-15T09:14:48.774Z,61.86
2023-03-15T09:17:31.766Z,61.42
2023-03-15T09:20:16.542Z,58.44
2023-03-15T09:23:00.868Z,60.37
2023-03-15T09:25:43.716Z,57.81
2023-03-15T09:28:26.932Z,58.58
2023-03-15T09:31:10.055Z,59.01
2023-03-15T09:33:52.951Z,57.81
2023-03-15T09:36:35.757Z,58.32
2023-03-15T09:39:20.936Z,54.54
2023-03-15T09:42:07.074Z,54.76
2023-03-15T09:44:54.337Z,56.02
2023-03-15T09:47:48.181Z,55.49
2023-03-15T09:50:35.594Z,54.95
2023-03-15T09:53:24.890Z,54.84
2023-03-15T09:56:23.995Z,52.69
2023-03-15T09:59:07.857Z,53.43
2023-03-15T10:01:56.563Z,54.65
2023-03-15T10:04:42.036Z,53.69
2023-03-15T10:07:24.911Z,54.91
2023-03-15T10:10:15.929Z,52.41
2023-03-15T10:13:14.590Z,52.12
2023-03-15T10:16:10.906Z,54.24
2023-03-15T10:19:05.863Z,53.73
2023-03-15T10:21:52.704Z,52.17
2023-03-15T10:24:39.709Z,53.23
2023-03-15T10:27:26.965Z,53.85
2023-03-15T10:30:18.467Z,53.36
2023-03-15T10:33:05.767Z,53.12
2023-03-15T10:35:49.839Z,52.10
2023-03-15T10:38:32.918Z,52.42
2023-03-15T10:41:29.373Z,52.46
2023-03-15T10:44:15.374Z,51.95
2023-03-15T10:47:19.974Z,51.90
2023-03-15T10:50:05.577Z,51.29
2023-03-15T10:52:51.278Z,51.37
2023-03-15T10:55:38.153Z,52.43
2023-03-15T10:58:27.503Z,53.95
2023-03-15T11:01:23.352Z,52.90
2023-03-15T11:04:16.249Z,52.32
2023-03-15T11:07:03.319Z,51.84
2023-03-15T11:09:52.869Z,50.52
2023-03-15T11:12:36.064Z,51.82
2023-03-15T11:15:20.062Z,51.56
2023-03-15T11:18:03.158Z,50.78
2023-03-15T11:20:47.345Z,50.81
2023-03-15T11:23:33.085Z,49.77
2023-03-15T11:26:31.537Z,51.05
2023-03-15T11:29:21.979Z,51.46
2023-03-15T11:32:14.541Z,50.52
2023-03-15T11:35:03.331Z,51.54
2023-03-15T11:37:51.760Z,51.37
2023-03-15T11:40:39.200Z,52.04
2023-03-15T11:43:26.775Z,52.04
2023-03-15T11:46:15.816Z,50.93
2023-03-15T11:49:16.246Z,52.17
2023-03-15T11:51:59.197Z,50.99
2023-03-15T11:54:45.778Z,51.25
2023-03-15T11:57:45.725Z,51.08
2023-03-15T12:00:50.048Z,51.13
2023-03-15T12:03:37.709Z,51.04
2023-03-15T12:06:38.531Z,50.43
2023-03-15T12:09:52.263Z,50.75
2023-03-15T12:12:41.553Z,51.23
2023-03-15T12:15:46.972Z,51.31
2023-03-15T12:18:34.559Z,51.25
2023-03-15T12:21:33.578Z,51.91
2023-03-15T12:24:22.777Z,50.58
2023-03-15T12:27:16.045Z,49.69
2023-03-15T12:30:02.585Z,50.35
2023-03-15T12:32:50.668Z,51.06
2023-03-15T12:35:40.851Z,50.12
2023-03-15T12:38:25.100Z,49.45
2023-03-15T12:41:10.129Z,49.57
2023-03-15T12:43:54.280Z,47.96
2023-03-15T12:47:01.038Z,47.36
2023-03-15T12:49:45.870Z,48.75
2023-03-15T12:52:41.281Z,48.49
2023-03-15T12:55:24.235Z,48.69
2023-03-15T12:58:12.806Z,48.70
2023-03-15T13:00:57.522Z,49.36
2023-03-15T13:03:40.453Z,49.16
2023-03-15T13:06:37.090Z,48.94
2023-03-15T13:09:36.298Z,50.16
2023-03-15T13:12:25.370Z,50.27
2023-03-15T13:15:14.828Z,49.46
2023-03-15T13:18:04.539Z,50.43
2023-03-15T13:20:56.406Z,50.37
2023-03-15T13:23:43.743Z,50.83
2023-03-15T13:26:47.707Z,51.19
2023-03-15T13:29:33.207Z,52.00
2023-03-15T13:32:18.204Z,52.63
2023-03-15T13:35:03.798Z,52.54
2023-03-15T13:37:46.623Z,52.57
2023-03-15T13:40:29.526Z,52.69
2023-03-15T13:43:13.176Z,52.77
2023-03-15T13:45:59.215Z,52.77
2023-03-15T13:48:44.688Z,52.96
2023-03-15T13:51:31.228Z,53.45
2023-03-15T13:54:19.460Z,53.35
2023-03-15T13:57:07.301Z,53.49
2023-03-15T13:59:54.323Z,53.10
2023-03-15T14:02:48.188Z,52.92
2023-03-15T14:05:33.560Z,53.01
2023-03-15T14:08:23.483Z,52.89
2023-03-15T14:11:10.130Z,53.09
2023-03-15T14:13:57.650Z,53.05
2023-03-15T14:17:01.218Z,52.99
2023-03-15T14:19:53.353Z,52.92
2023-03-15T14:22:36.903Z,53.04
2023-03-15T14:25:23.167Z,52.73
2023-03-15T14:28:07.105Z,52.83
2023-03-15T14:30:54.858Z,52.79
2023-03-15T14:33:40.746Z,52.33
2023-03-15T14:36:26.631Z,52.98
2023-03-15T14:39:19.149Z,52.79
2023-03-15T14:42:03.310Z,52.77
2023-03-15T14:44:46.138Z,53.39
2023-03-15T14:47:28.968Z,53.70
2023-03-15T14:50:15.397Z,54.03
2023-03-15T14:52:59.727Z,53.92
2023-03-15T14:55:42.589Z,54.12
2023-03-15T14:58:26.735Z,54.83
2023-03-15T15:01:13.526Z,55.17
2023-03-15T15:04:00.331Z,54.91
2023-03-15T15:06:50.536Z,55.23
2023-03-15T15:09:33.355Z,55.11
2023-03-15T15:12:16.483Z,55.13
2023-03-15T15:15:00.608Z,54.93
2023-03-15T15:17:43.510Z,54.79
2023-03-15T15:20:26.612Z,55.18
2023-03-15T15:23:10.651Z,55.55
2023-03-15T15:25:57.146Z,56.20
2023-03-15T15:28:40.021Z,56.52
2023-03-15T15:31:26.751Z,56.78
2023-03-15T15:34:10.992Z,56.84
2023-03-15T15:36:53.910Z,56.79
2023-03-15T15:39:36.760Z,57.00
2023-03-15T15:42:19.595Z,57.67
2023-03-15T15:45:02.363Z,57.33
2023-03-15T15:47:47.139Z,57.64
2023-03-15T15:50:29.936Z,57.54
2023-03-15T15:53:17.566Z,57.22
2023-03-15T15:56:00.840Z,57.54
2023-03-15T15:58:45.593Z,57.69
2023-03-15T16:01:28.449Z,57.80
2023-03-15T16:04:12.792Z,58.40
2023-03-15T16:06:58.593Z,58.04
2023-03-15T16:09:42.938Z,57.87
2023-03-15T16:12:26.737Z,58.30
2023-03-15T16:15:12.718Z,58.36
2023-03-15T16:17:55.527Z,58.59
2023-03-15T16:20:41.300Z,58.36
2023-03-15T16:23:26.202Z,59.18
2023-03-15T16:26:12.300Z,58.94
2023-03-15T16:28:55.503Z,59.62
2023-03-15T16:31:38.319Z,59.67
2023-03-15T16:34:23.609Z,59.76
2023-03-15T16:37:08.125Z,59.94
2023-03-15T16:39:52.647Z,61.53
2023-03-15T16:42:35.417Z,60.50
2023-03-15T16:45:18.578Z,60.85
2023-03-15T16:48:01.408Z,60.71
2023-03-15T16:50:45.116Z,60.78
2023-03-15T16:53:29.382Z,60.85
2023-03-15T16:56:14.187Z,61.09
2023-03-15T16:58:56.992Z,60.93
2023-03-15T17:01:39.771Z,61.23
2023-03-15T17:04:23.238Z,61.68
2023-03-15T17:07:06.495Z,61.90
2023-03-15T17:09:51.498Z,61.99
2023-03-15T17:12:35.141Z,61.83
2023-03-15T17:15:20.483Z,63.19
2023-03-15T17:18:03.283Z,62.75
2023-03-15T17:20:47.859Z,62.73
2023-03-15T17:23:31.360Z,62.61
2023-03-15T17:26:17.964Z,63.11
2023-03-15T17:29:01.003Z,63.11
2023-03-15T17:31:44.841Z,64.43
2023-03-15T17:34:27.672Z,63.11
2023-03-15T17:37:12.153Z,63.73
2023-03-15T17:39:54.999Z,64.78
2023-03-15T17:42:39.358Z,64.64
2023-03-15T17:45:23.527Z,64.87
2023-03-15T17:48:06.680Z,64.52
2023-03-15T17:50:49.566Z,64.88
2023-03-15T17:53:32.848Z,65.25
2023-03-15T17:56:15.612Z,65.80
2023-03-15T17:58:59.870Z,65.76
2023-03-15T18:01:45.702Z,65.07
2023-03-15T18:04:28.590Z,65.39
2023-03-15T18:07:11.563Z,65.08
2023-03-15T18:09:54.795Z,65.17
2023-03-15T18:12:37.817Z,66.56
2023-03-15T18:15:23.943Z,66.41
2023-03-15T18:18:06.806Z,65.80
2023-03-15T18:20:50.331Z,65.74
2023-03-15T18:23:33.123Z,66.37
2023-03-15T18:26:15.930Z,66.45
2023-03-15T18:28:58.720Z,66.81
2023-03-15T18:31:43.303Z,66.29
2023-03-15T18:34:26.149Z,66.61
2023-03-15T18:37:09.742Z,66.80
2023-03-15T18:39:52.536Z,66.55
2023-03-15T18:42:35.354Z,66.76
2023-03-15T18:45:20.502Z,67.43
2023-03-15T18:48:04.827Z,67.07
2023-03-15T18:50:47.688Z,67.33
2023-03-15T18:53:31.070Z,67.36
2023-03-15T18:56:19.243Z,68.34
2023-03-15T18:59:02.958Z,67.74
2023-03-15T19:01:46.091Z,67.48
2023-03-15T19:04:30.233Z,67.43
2023-03-15T19:07:13.076Z,67.78
2023-03-15T19:09:55.925Z,68.04
2023-03-15T19:12:39.840Z,67.92
2023-03-15T19:15:24.063Z,68.87
2023-03-15T19:18:07.302Z,68.51
2023-03-15T19:20:52.823Z,68.86
2023-03-15T19:23:35.616Z,69.04
2023-03-15T19:26:18.478Z,68.94
2023-03-15T19:29:02.826Z,68.91
2023-03-15T19:31:45.612Z,68.58
2023-03-15T19:34:28.470Z,68.70
2023-03-15T19:37:12.679Z,68.95
2023-03-15T19:39:55.450Z,69.85
2023-03-15T19:42:38.214Z,69.03
2023-03-15T19:45:21.018Z,68.98
2023-03-15T19:48:03.894Z,68.96
2023-03-15T19:50:48.185Z,69.01
2023-03-15T19:53:32.540Z,69.86
2023-03-15T19:56:15.305Z,69.71
2023-03-15T19:58:58.301Z,69.13
2023-03-15T20:01:41.240Z,69.04
2023-03-15T20:04:24.069Z,68.58
2023-03-15T20:07:11.081Z,68.60
2023-03-15T20:09:55.344Z,68.43
2023-03-15T20:12:39.451Z,68.66
2023-03-15T20:15:22.210Z,68.68
2023-03-15T20:18:08.166Z,68.97
2023-03-15T20:20:51.963Z,68.85
2023-03-15T20:23:35.815Z,68.73
2023-03-15T20:26:20.808Z,68.73
2023-03-15T20:29:03.597Z,68.64
2023-03-15T20:31:46.597Z,68.61
2023-03-15T20:34:29.418Z,68.75
2023-03-15T20:37:13.494Z,68.64
2023-03-15T20:39:56.532Z,68.51
2023-03-15T20:42:41.316Z,68.64
2023-03-15T20:45:24.106Z,68.69
2023-03-15T20:48:07.110Z,68.73
2023-03-15T20:50:50.095Z,68.64
2023-03-15T20:53:34.039Z,68.88
2023-03-15T20:56:17.967Z,69.16
2023-03-15T20:59:02.215Z,69.33
2023-03-15T21:01:45.075Z,69.17
2023-03-15T21:04:28.398Z,69.17
2023-03-15T21:07:11.467Z,69.09
2023-03-15T21:09:54.240Z,69.14
2023-03-15T21:12:37.509Z,69.35
2023-03-15T21:15:21.645Z,69.87
2023-03-15T21:18:04.478Z,70.64
2023-03-15T21:20:47.308Z,70.47
2023-03-15T21:23:31.528Z,70.56
2023-03-15T21:26:14.778Z,70.55
2023-03-15T21:28:57.650Z,70.54
2023-03-15T21:31:41.816Z,71.48
2023-03-15T21:34:24.739Z,71.33
2023-03-15T21:37:07.502Z,71.83
2023-03-15T21:39:50.284Z,71.48
2023-03-15T21:42:33.953Z,71.29
2023-03-15T21:45:16.889Z,71.64
2023-03-15T21:48:01.041Z,71.90
2023-03-15T21:50:44.162Z,71.49
2023-03-15T21:53:26.980Z,71.42
2023-03-15T21:56:09.975Z,71.64
2023-03-15T21:58:53.927Z,72.01
2023-03-15T22:01:36.860Z,71.79
2023-03-15T22:04:21.049Z,71.86
2023-03-15T22:07:03.823Z,72.10
2023-03-15T22:09:46.650Z,71.88
2023-03-15T22:12:29.385Z,72.25
2023-03-15T22:15:13.368Z,72.16
2023-03-15T22:17:56.188Z,71.96
2023-03-15T22:20:40.414Z,72.52
2023-03-15T22:23:23.637Z,72.24
2023-03-15T22:26:06.503Z,72.37
2023-03-15T22:28:49.755Z,72.12
2023-03-15T22:31:32.740Z,72.21
2023-03-15T22:34:15.667Z,71.78
2023-03-15T22:36:59.763Z,71.58
2023-03-15T22:39:43.199Z,71.58
2023-03-15T22:42:26.076Z,71.08
2023-03-15T22:45:10.168Z,71.63
2023-03-15T22:47:52.961Z,71.56
2023-03-15T22:50:35.765Z,71.58
2023-03-15T22:53:19.954Z,71.36
2023-03-15T22:56:03.724Z,71.49
2023-03-15T22:58:47.286Z,71.62
2023-03-15T23:01:30.081Z,71.65
2023-03-15T23:04:12.924Z,71.68
2023-03-15T23:06:55.956Z,71.46
2023-03-15T23:09:40.323Z,71.40
2023-03-15T23:12:33.853Z,71.23
2023-03-15T23:15:18.550Z,71.29
2023-03-15T23:18:01.814Z,71.28
2023-03-15T23:20:44.677Z,71.09
2023-03-15T23:23:27.621Z,71.00
2023-03-15T23:26:15.279Z,70.89
2023-03-15T23:28:58.092Z,70.97
2023-03-15T23:31:42.440Z,71.01
2023-03-15T23:34:25.286Z,71.00
2023-03-15T23:37:08.190Z,71.00
2023-03-15T23:39:52.877Z,71.05
2023-03-15T23:42:37.671Z,71.07
2023-03-15T23:45:20.551Z,71.15
2023-03-15T23:48:03.375Z,71.19
2023-03-15T23:50:46.193Z,71.53
2023-03-15T23:53:28.951Z,71.15
2023-03-15T23:56:11.865Z,71.14
2023-03-15T23:58:56.118Z,71.28
